Aurora, IL

3:51 PM CST on December 26, 2014 (GMT -0600)
Du Page | Change Station
CLOSE
Current Station
Airport
Location: Chicago DuPage,
Elevation: 758 ft
Nearby Weather Stations

Elev 758 ft 41.90 °N, 88.25 °W | Updated 59 minutes ago

Partly Cloudy
Partly Cloudy
49 °F
Feels Like 49 °F
N
12
Wind Variable Wind from South

Today
High -- | Low -- °F
--% Chance of Precip.
Yesterday
High -- | Low -- °F
Precip. -- in
7:18 AM 4:28 PM
Waxing Crescent, 29% visible
Pressure 30.00 in
Visibility 10.0 miles
Clouds Clear
Dew Point 39 °F
Humidity 69%
Rainfall 0.00 in
Snow Depth Not available.
UV 1 out of 12
Pollen .10 out of 12
Air Quality Not available.
Flu Activity Not available.
METAR KDPA 262052Z 18010KT 10SM CLR 09/04 A2998 RMK AO2 SLP157 T00940039 55005

More Conditions Fewer Conditions

Pressure 30.00 in
Visibility 10.0 miles
Clouds Clear
Dew Point 39 °F
Humidity 69%
Rainfall 0.00 in
Snow Depth Not available.
UV 1 out of 12
Pollen .10 out of 12
Air Quality Not available.
Flu Activity Not available.
METAR KDPA 262052Z 18010KT 10SM CLR 09/04 A2998 RMK AO2 SLP157 T00940039 55005

More Conditions Fewer Conditions

10-Day Weather Forecast

Almanac

Astronomy

Dec. 26, 2014 Rise Set
Actual Time
Civil Twilight
Nautical Twilight
Astronomical Twilight
Moon
Length of Visible Light
Length of Day
Tomorrow will be .
, % of the Moon is Illuminated

Today's Extremes

State Highs State Lows

Community

WunderPhotos

Upload Photos

1,780,723 photos uploaded!

WunderBlogs® & News

Nearby

Air Quality

  Air Quality AQ Index Pollutant
Not available.

Snow Depth

Station Depth Elevation

Earthquake Activity

City Distance Mag. Time & Date
Minimum magnitude displayed is 2.5.

Coastal Water Temperatures

Place Temperature

Nearby Weather Stations